sensor_id;sensor_type;location;lat;lon;timestamp;P1;durP1;ratioP1;P2;durP2;ratioP2
71116;SDS011;58775;46.992;9.518;2023-12-20T00:00:28;7.63;;;2.73;;
71116;SDS011;58775;46.992;9.518;2023-12-20T00:02:29;8.98;;;2.85;;
71116;SDS011;58775;46.992;9.518;2023-12-20T00:04:30;7.23;;;2.80;;
71116;SDS011;58775;46.992;9.518;2023-12-20T00:06:31;11.32;;;3.85;;
71116;SDS011;58775;46.992;9.518;2023-12-20T00:08:31;6.72;;;3.00;;
71116;SDS011;58775;46.992;9.518;2023-12-20T00:10:32;7.00;;;3.00;;
71116;SDS011;58775;46.992;9.518;2023-12-20T00:12:33;8.93;;;3.38;;
71116;SDS011;58775;46.992;9.518;2023-12-20T00:14:34;7.80;;;3.00;;
71116;SDS011;58775;46.992;9.518;2023-12-20T00:16:34;7.88;;;2.83;;
71116;SDS011;58775;46.992;9.518;2023-12-20T00:18:35;7.47;;;3.00;;
71116;SDS011;58775;46.992;9.518;2023-12-20T00:20:36;8.52;;;3.50;;
71116;SDS011;58775;46.992;9.518;2023-12-20T00:22:36;8.30;;;3.30;;
71116;SDS011;58775;46.992;9.518;2023-12-20T00:24:37;8.63;;;3.72;;
71116;SDS011;58775;46.992;9.518;2023-12-20T00:26:38;8.67;;;3.73;;
71116;SDS011;58775;46.992;9.518;2023-12-20T00:28:39;9.13;;;3.55;;
71116;SDS011;58775;46.992;9.518;2023-12-20T00:30:39;8.93;;;3.57;;
71116;SDS011;58775;46.992;9.518;2023-12-20T00:32:40;8.45;;;3.55;;
71116;SDS011;58775;46.992;9.518;2023-12-20T00:34:46;9.40;;;3.80;;
71116;SDS011;58775;46.992;9.518;2023-12-20T00:36:47;9.63;;;3.72;;
71116;SDS011;58775;46.992;9.518;2023-12-20T00:38:47;10.27;;;3.90;;
71116;SDS011;58775;46.992;9.518;2023-12-20T00:40:48;9.45;;;3.85;;
71116;SDS011;58775;46.992;9.518;2023-12-20T00:42:50;6.68;;;3.13;;
71116;SDS011;58775;46.992;9.518;2023-12-20T00:44:50;8.70;;;3.57;;
71116;SDS011;58775;46.992;9.518;2023-12-20T00:46:51;9.00;;;3.95;;
71116;SDS011;58775;46.992;9.518;2023-12-20T00:48:52;9.30;;;3.90;;
71116;SDS011;58775;46.992;9.518;2023-12-20T00:50:54;9.35;;;4.00;;
71116;SDS011;58775;46.992;9.518;2023-12-20T00:52:55;8.48;;;3.78;;
71116;SDS011;58775;46.992;9.518;2023-12-20T00:54:56;7.32;;;3.50;;
71116;SDS011;58775;46.992;9.518;2023-12-20T00:56:57;9.15;;;3.97;;
71116;SDS011;58775;46.992;9.518;2023-12-20T00:58:57;8.87;;;3.73;;
71116;SDS011;58775;46.992;9.518;2023-12-20T01:00:58;8.07;;;4.15;;
71116;SDS011;58775;46.992;9.518;2023-12-20T01:02:59;10.87;;;4.20;;
71116;SDS011;58775;46.992;9.518;2023-12-20T01:05:00;7.55;;;3.28;;
71116;SDS011;58775;46.992;9.518;2023-12-20T01:07:00;8.50;;;3.90;;
71116;SDS011;58775;46.992;9.518;2023-12-20T01:09:01;9.15;;;3.85;;
71116;SDS011;58775;46.992;9.518;2023-12-20T01:11:05;7.85;;;3.42;;
71116;SDS011;58775;46.992;9.518;2023-12-20T01:13:06;8.00;;;3.83;;
71116;SDS011;58775;46.992;9.518;2023-12-20T01:15:09;6.88;;;3.17;;
71116;SDS011;58775;46.992;9.518;2023-12-20T01:17:10;8.27;;;3.67;;
71116;SDS011;58775;46.992;9.518;2023-12-20T01:19:11;8.35;;;3.50;;
71116;SDS011;58775;46.992;9.518;2023-12-20T01:21:12;8.27;;;3.40;;
71116;SDS011;58775;46.992;9.518;2023-12-20T01:23:13;9.27;;;3.42;;
71116;SDS011;58775;46.992;9.518;2023-12-20T01:25:13;7.35;;;3.30;;
71116;SDS011;58775;46.992;9.518;2023-12-20T01:27:14;9.35;;;3.42;;
71116;SDS011;58775;46.992;9.518;2023-12-20T01:29:15;10.98;;;3.78;;
71116;SDS011;58775;46.992;9.518;2023-12-20T01:31:16;11.03;;;4.00;;
71116;SDS011;58775;46.992;9.518;2023-12-20T01:33:17;9.50;;;4.20;;
71116;SDS011;58775;46.992;9.518;2023-12-20T01:35:17;9.00;;;4.40;;
71116;SDS011;58775;46.992;9.518;2023-12-20T01:37:18;9.10;;;4.25;;
71116;SDS011;58775;46.992;9.518;2023-12-20T01:39:19;9.43;;;4.13;;
71116;SDS011;58775;46.992;9.518;2023-12-20T01:41:20;12.30;;;4.38;;
71116;SDS011;58775;46.992;9.518;2023-12-20T01:43:20;11.35;;;4.22;;
71116;SDS011;58775;46.992;9.518;2023-12-20T01:45:21;10.37;;;4.60;;
71116;SDS011;58775;46.992;9.518;2023-12-20T01:47:22;10.32;;;4.22;;
71116;SDS011;58775;46.992;9.518;2023-12-20T01:49:23;9.70;;;3.87;;
71116;SDS011;58775;46.992;9.518;2023-12-20T01:51:24;9.85;;;3.92;;
71116;SDS011;58775;46.992;9.518;2023-12-20T01:53:27;9.73;;;3.90;;
71116;SDS011;58775;46.992;9.518;2023-12-20T01:55:30;8.60;;;3.60;;
71116;SDS011;58775;46.992;9.518;2023-12-20T01:57:33;10.20;;;4.37;;
71116;SDS011;58775;46.992;9.518;2023-12-20T01:59:34;8.82;;;4.13;;
71116;SDS011;58775;46.992;9.518;2023-12-20T02:01:35;9.25;;;4.40;;
71116;SDS011;58775;46.992;9.518;2023-12-20T02:03:36;9.68;;;4.47;;
71116;SDS011;58775;46.992;9.518;2023-12-20T02:05:37;9.20;;;3.85;;
71116;SDS011;58775;46.992;9.518;2023-12-20T02:07:39;9.10;;;4.00;;
71116;SDS011;58775;46.992;9.518;2023-12-20T02:09:39;10.75;;;4.55;;
71116;SDS011;58775;46.992;9.518;2023-12-20T02:11:40;11.32;;;4.32;;
71116;SDS011;58775;46.992;9.518;2023-12-20T02:13:41;9.80;;;3.95;;
71116;SDS011;58775;46.992;9.518;2023-12-20T02:15:42;10.68;;;4.25;;
71116;SDS011;58775;46.992;9.518;2023-12-20T02:17:44;10.30;;;4.87;;
71116;SDS011;58775;46.992;9.518;2023-12-20T02:19:46;8.20;;;4.03;;
71116;SDS011;58775;46.992;9.518;2023-12-20T02:21:47;8.65;;;4.22;;
71116;SDS011;58775;46.992;9.518;2023-12-20T02:23:48;9.50;;;4.10;;
71116;SDS011;58775;46.992;9.518;2023-12-20T02:25:48;8.20;;;3.92;;
71116;SDS011;58775;46.992;9.518;2023-12-20T02:27:49;9.67;;;4.07;;
71116;SDS011;58775;46.992;9.518;2023-12-20T02:29:50;9.25;;;4.28;;
71116;SDS011;58775;46.992;9.518;2023-12-20T02:31:51;8.18;;;3.80;;
71116;SDS011;58775;46.992;9.518;2023-12-20T02:33:52;8.32;;;3.70;;
71116;SDS011;58775;46.992;9.518;2023-12-20T02:35:53;8.63;;;4.13;;
71116;SDS011;58775;46.992;9.518;2023-12-20T02:37:53;10.57;;;4.88;;
71116;SDS011;58775;46.992;9.518;2023-12-20T02:39:54;11.87;;;4.90;;
71116;SDS011;58775;46.992;9.518;2023-12-20T02:41:55;9.00;;;4.75;;
71116;SDS011;58775;46.992;9.518;2023-12-20T02:43:55;9.23;;;4.17;;
71116;SDS011;58775;46.992;9.518;2023-12-20T02:45:56;10.80;;;4.68;;
71116;SDS011;58775;46.992;9.518;2023-12-20T02:47:57;8.93;;;4.10;;
71116;SDS011;58775;46.992;9.518;2023-12-20T02:49:57;9.27;;;4.05;;
71116;SDS011;58775;46.992;9.518;2023-12-20T02:51:58;10.83;;;4.67;;
71116;SDS011;58775;46.992;9.518;2023-12-20T02:53:59;9.57;;;4.47;;
71116;SDS011;58775;46.992;9.518;2023-12-20T02:55:59;8.37;;;3.60;;
71116;SDS011;58775;46.992;9.518;2023-12-20T02:58:00;11.02;;;4.35;;
71116;SDS011;58775;46.992;9.518;2023-12-20T03:00:01;10.03;;;4.47;;
71116;SDS011;58775;46.992;9.518;2023-12-20T03:02:01;9.90;;;5.05;;
71116;SDS011;58775;46.992;9.518;2023-12-20T03:04:02;10.10;;;4.67;;
71116;SDS011;58775;46.992;9.518;2023-12-20T03:06:03;12.07;;;4.90;;
71116;SDS011;58775;46.992;9.518;2023-12-20T03:08:04;12.82;;;5.05;;
71116;SDS011;58775;46.992;9.518;2023-12-20T03:10:05;12.23;;;5.27;;
71116;SDS011;58775;46.992;9.518;2023-12-20T03:12:08;12.32;;;5.28;;
71116;SDS011;58775;46.992;9.518;2023-12-20T03:14:09;10.38;;;4.70;;
71116;SDS011;58775;46.992;9.518;2023-12-20T03:16:10;7.67;;;3.73;;
71116;SDS011;58775;46.992;9.518;2023-12-20T03:18:12;10.43;;;5.03;;
71116;SDS011;58775;46.992;9.518;2023-12-20T03:20:12;10.27;;;4.43;;
71116;SDS011;58775;46.992;9.518;2023-12-20T03:22:13;9.33;;;4.33;;
71116;SDS011;58775;46.992;9.518;2023-12-20T03:24:14;11.20;;;5.47;;
71116;SDS011;58775;46.992;9.518;2023-12-20T03:26:15;9.13;;;4.50;;
71116;SDS011;58775;46.992;9.518;2023-12-20T03:28:15;10.45;;;4.68;;
71116;SDS011;58775;46.992;9.518;2023-12-20T03:30:16;11.90;;;5.10;;
71116;SDS011;58775;46.992;9.518;2023-12-20T03:32:17;10.77;;;4.78;;
71116;SDS011;58775;46.992;9.518;2023-12-20T03:34:18;11.10;;;5.27;;
71116;SDS011;58775;46.992;9.518;2023-12-20T03:36:19;12.30;;;5.18;;
71116;SDS011;58775;46.992;9.518;2023-12-20T03:38:20;11.38;;;5.07;;
71116;SDS011;58775;46.992;9.518;2023-12-20T03:40:21;12.10;;;5.73;;
71116;SDS011;58775;46.992;9.518;2023-12-20T03:42:22;10.20;;;5.65;;
71116;SDS011;58775;46.992;9.518;2023-12-20T03:44:23;12.13;;;4.40;;
71116;SDS011;58775;46.992;9.518;2023-12-20T03:46:23;10.90;;;4.63;;
71116;SDS011;58775;46.992;9.518;2023-12-20T03:48:24;8.70;;;4.00;;
71116;SDS011;58775;46.992;9.518;2023-12-20T03:50:25;9.80;;;4.30;;
71116;SDS011;58775;46.992;9.518;2023-12-20T03:52:27;9.93;;;4.68;;
71116;SDS011;58775;46.992;9.518;2023-12-20T03:54:27;9.63;;;4.60;;
71116;SDS011;58775;46.992;9.518;2023-12-20T03:56:28;9.52;;;5.00;;
71116;SDS011;58775;46.992;9.518;2023-12-20T03:58:29;10.27;;;4.57;;
71116;SDS011;58775;46.992;9.518;2023-12-20T04:00:30;10.33;;;4.77;;
71116;SDS011;58775;46.992;9.518;2023-12-20T04:02:30;10.57;;;5.13;;
71116;SDS011;58775;46.992;9.518;2023-12-20T04:04:31;10.20;;;4.80;;
71116;SDS011;58775;46.992;9.518;2023-12-20T04:06:32;10.63;;;4.65;;
71116;SDS011;58775;46.992;9.518;2023-12-20T04:08:33;10.47;;;4.97;;
71116;SDS011;58775;46.992;9.518;2023-12-20T04:10:33;10.15;;;4.82;;
71116;SDS011;58775;46.992;9.518;2023-12-20T04:12:34;9.60;;;4.70;;
71116;SDS011;58775;46.992;9.518;2023-12-20T04:14:35;11.10;;;4.95;;
71116;SDS011;58775;46.992;9.518;2023-12-20T04:16:36;10.00;;;4.40;;
71116;SDS011;58775;46.992;9.518;2023-12-20T04:18:37;10.13;;;4.63;;
71116;SDS011;58775;46.992;9.518;2023-12-20T04:20:37;9.70;;;4.53;;
71116;SDS011;58775;46.992;9.518;2023-12-20T04:22:38;11.68;;;5.13;;
71116;SDS011;58775;46.992;9.518;2023-12-20T04:24:39;11.57;;;4.97;;
71116;SDS011;58775;46.992;9.518;2023-12-20T04:26:42;11.85;;;5.03;;
71116;SDS011;58775;46.992;9.518;2023-12-20T04:28:43;11.00;;;4.77;;
71116;SDS011;58775;46.992;9.518;2023-12-20T04:30:43;10.57;;;4.93;;
71116;SDS011;58775;46.992;9.518;2023-12-20T04:32:44;11.13;;;4.87;;
71116;SDS011;58775;46.992;9.518;2023-12-20T04:34:45;9.80;;;4.60;;
71116;SDS011;58775;46.992;9.518;2023-12-20T04:36:46;10.47;;;4.80;;
71116;SDS011;58775;46.992;9.518;2023-12-20T04:38:47;10.20;;;4.30;;
71116;SDS011;58775;46.992;9.518;2023-12-20T04:40:48;10.32;;;4.85;;
71116;SDS011;58775;46.992;9.518;2023-12-20T04:42:48;10.90;;;5.50;;
71116;SDS011;58775;46.992;9.518;2023-12-20T04:44:49;10.63;;;5.03;;
71116;SDS011;58775;46.992;9.518;2023-12-20T04:46:51;10.50;;;4.80;;
71116;SDS011;58775;46.992;9.518;2023-12-20T04:48:51;11.37;;;5.27;;
71116;SDS011;58775;46.992;9.518;2023-12-20T04:50:52;11.55;;;5.00;;
71116;SDS011;58775;46.992;9.518;2023-12-20T04:52:53;12.03;;;5.43;;
71116;SDS011;58775;46.992;9.518;2023-12-20T04:54:54;13.43;;;5.32;;
71116;SDS011;58775;46.992;9.518;2023-12-20T04:56:54;11.40;;;5.60;;
71116;SDS011;58775;46.992;9.518;2023-12-20T04:58:55;12.55;;;5.63;;
71116;SDS011;58775;46.992;9.518;2023-12-20T05:00:56;12.33;;;5.67;;
71116;SDS011;58775;46.992;9.518;2023-12-20T05:02:56;10.82;;;5.07;;
71116;SDS011;58775;46.992;9.518;2023-12-20T05:04:57;11.07;;;5.17;;
71116;SDS011;58775;46.992;9.518;2023-12-20T05:06:58;10.90;;;4.85;;
71116;SDS011;58775;46.992;9.518;2023-12-20T05:08:59;13.98;;;5.60;;
71116;SDS011;58775;46.992;9.518;2023-12-20T05:11:00;11.63;;;4.93;;
71116;SDS011;58775;46.992;9.518;2023-12-20T05:13:01;13.85;;;5.55;;
71116;SDS011;58775;46.992;9.518;2023-12-20T05:15:01;9.50;;;4.57;;
71116;SDS011;58775;46.992;9.518;2023-12-20T05:17:02;12.38;;;5.20;;
71116;SDS011;58775;46.992;9.518;2023-12-20T05:19:03;9.50;;;4.78;;
71116;SDS011;58775;46.992;9.518;2023-12-20T05:21:06;10.83;;;5.03;;
71116;SDS011;58775;46.992;9.518;2023-12-20T05:23:07;11.43;;;4.75;;
71116;SDS011;58775;46.992;9.518;2023-12-20T05:25:08;9.57;;;4.75;;
71116;SDS011;58775;46.992;9.518;2023-12-20T05:27:09;9.77;;;4.53;;
71116;SDS011;58775;46.992;9.518;2023-12-20T05:29:10;10.80;;;5.10;;
71116;SDS011;58775;46.992;9.518;2023-12-20T05:31:10;9.03;;;4.77;;
71116;SDS011;58775;46.992;9.518;2023-12-20T05:33:11;9.63;;;4.30;;
71116;SDS011;58775;46.992;9.518;2023-12-20T05:35:12;8.77;;;4.57;;
71116;SDS011;58775;46.992;9.518;2023-12-20T05:37:13;10.48;;;4.25;;
71116;SDS011;58775;46.992;9.518;2023-12-20T05:39:13;10.68;;;4.43;;
71116;SDS011;58775;46.992;9.518;2023-12-20T05:41:14;10.05;;;4.93;;
71116;SDS011;58775;46.992;9.518;2023-12-20T05:43:15;11.15;;;5.07;;
71116;SDS011;58775;46.992;9.518;2023-12-20T05:45:16;11.02;;;5.10;;
71116;SDS011;58775;46.992;9.518;2023-12-20T05:47:16;12.00;;;4.72;;
71116;SDS011;58775;46.992;9.518;2023-12-20T05:49:17;10.20;;;4.77;;
71116;SDS011;58775;46.992;9.518;2023-12-20T05:51:18;10.07;;;5.18;;
71116;SDS011;58775;46.992;9.518;2023-12-20T05:53:19;11.23;;;5.30;;
71116;SDS011;58775;46.992;9.518;2023-12-20T05:55:20;12.55;;;5.20;;
71116;SDS011;58775;46.992;9.518;2023-12-20T05:57:20;11.43;;;4.80;;
71116;SDS011;58775;46.992;9.518;2023-12-20T05:59:21;10.65;;;5.13;;
71116;SDS011;58775;46.992;9.518;2023-12-20T06:01:22;13.90;;;4.85;;
71116;SDS011;58775;46.992;9.518;2023-12-20T06:03:23;11.57;;;4.70;;
71116;SDS011;58775;46.992;9.518;2023-12-20T06:05:25;11.93;;;4.95;;
71116;SDS011;58775;46.992;9.518;2023-12-20T06:07:26;11.47;;;4.83;;
71116;SDS011;58775;46.992;9.518;2023-12-20T06:09:27;11.50;;;4.93;;
71116;SDS011;58775;46.992;9.518;2023-12-20T06:11:28;8.82;;;4.40;;
71116;SDS011;58775;46.992;9.518;2023-12-20T06:13:28;9.37;;;4.83;;
71116;SDS011;58775;46.992;9.518;2023-12-20T06:15:29;10.65;;;4.70;;
71116;SDS011;58775;46.992;9.518;2023-12-20T06:17:30;11.73;;;4.60;;
71116;SDS011;58775;46.992;9.518;2023-12-20T06:19:31;9.43;;;4.47;;
71116;SDS011;58775;46.992;9.518;2023-12-20T06:21:32;8.88;;;4.45;;
71116;SDS011;58775;46.992;9.518;2023-12-20T06:23:33;10.40;;;4.63;;
71116;SDS011;58775;46.992;9.518;2023-12-20T06:25:34;13.30;;;5.63;;
71116;SDS011;58775;46.992;9.518;2023-12-20T06:27:34;9.90;;;5.27;;
71116;SDS011;58775;46.992;9.518;2023-12-20T06:29:35;10.50;;;4.13;;
71116;SDS011;58775;46.992;9.518;2023-12-20T06:31:36;11.60;;;4.50;;
71116;SDS011;58775;46.992;9.518;2023-12-20T06:33:36;11.85;;;4.60;;
71116;SDS011;58775;46.992;9.518;2023-12-20T06:35:40;16.80;;;4.70;;
71116;SDS011;58775;46.992;9.518;2023-12-20T06:37:41;9.47;;;4.03;;
71116;SDS011;58775;46.992;9.518;2023-12-20T06:39:43;12.05;;;4.50;;
71116;SDS011;58775;46.992;9.518;2023-12-20T06:41:43;9.45;;;4.40;;
71116;SDS011;58775;46.992;9.518;2023-12-20T06:43:44;9.50;;;4.10;;
71116;SDS011;58775;46.992;9.518;2023-12-20T06:45:45;9.88;;;4.22;;
71116;SDS011;58775;46.992;9.518;2023-12-20T06:47:45;10.57;;;3.93;;
71116;SDS011;58775;46.992;9.518;2023-12-20T06:49:46;10.65;;;4.45;;
71116;SDS011;58775;46.992;9.518;2023-12-20T06:51:47;11.43;;;4.53;;
71116;SDS011;58775;46.992;9.518;2023-12-20T06:53:48;9.77;;;4.32;;
71116;SDS011;58775;46.992;9.518;2023-12-20T06:55:48;8.97;;;3.97;;
71116;SDS011;58775;46.992;9.518;2023-12-20T06:57:49;7.90;;;3.58;;
71116;SDS011;58775;46.992;9.518;2023-12-20T06:59:50;10.57;;;3.90;;
71116;SDS011;58775;46.992;9.518;2023-12-20T07:01:52;9.05;;;3.53;;
71116;SDS011;58775;46.992;9.518;2023-12-20T07:03:53;8.13;;;3.38;;
71116;SDS011;58775;46.992;9.518;2023-12-20T07:05:53;9.43;;;3.90;;
71116;SDS011;58775;46.992;9.518;2023-12-20T07:07:54;9.15;;;3.53;;
71116;SDS011;58775;46.992;9.518;2023-12-20T07:09:55;9.95;;;3.65;;
71116;SDS011;58775;46.992;9.518;2023-12-20T07:11:56;8.10;;;3.40;;
71116;SDS011;58775;46.992;9.518;2023-12-20T07:13:56;8.40;;;3.40;;
71116;SDS011;58775;46.992;9.518;2023-12-20T07:15:57;7.07;;;3.05;;
71116;SDS011;58775;46.992;9.518;2023-12-20T07:17:58;8.90;;;3.40;;
71116;SDS011;58775;46.992;9.518;2023-12-20T07:20:00;8.85;;;3.70;;
71116;SDS011;58775;46.992;9.518;2023-12-20T07:22:04;8.35;;;3.28;;
71116;SDS011;58775;46.992;9.518;2023-12-20T07:24:05;9.77;;;3.73;;
71116;SDS011;58775;46.992;9.518;2023-12-20T07:26:06;9.40;;;3.38;;
71116;SDS011;58775;46.992;9.518;2023-12-20T07:28:07;8.85;;;3.10;;
71116;SDS011;58775;46.992;9.518;2023-12-20T07:30:08;9.90;;;3.67;;
71116;SDS011;58775;46.992;9.518;2023-12-20T07:32:09;9.45;;;3.28;;
71116;SDS011;58775;46.992;9.518;2023-12-20T07:34:10;8.33;;;3.43;;
71116;SDS011;58775;46.992;9.518;2023-12-20T07:36:11;8.80;;;3.33;;
71116;SDS011;58775;46.992;9.518;2023-12-20T07:38:12;8.85;;;4.47;;
71116;SDS011;58775;46.992;9.518;2023-12-20T07:40:13;8.10;;;3.73;;
71116;SDS011;58775;46.992;9.518;2023-12-20T07:42:16;7.55;;;3.03;;
71116;SDS011;58775;46.992;9.518;2023-12-20T07:44:17;9.07;;;3.80;;
71116;SDS011;58775;46.992;9.518;2023-12-20T07:46:18;9.77;;;3.37;;
71116;SDS011;58775;46.992;9.518;2023-12-20T07:48:22;9.23;;;3.85;;
71116;SDS011;58775;46.992;9.518;2023-12-20T07:50:23;8.67;;;3.60;;
71116;SDS011;58775;46.992;9.518;2023-12-20T07:52:24;10.48;;;3.95;;
71116;SDS011;58775;46.992;9.518;2023-12-20T07:54:26;10.52;;;4.32;;
71116;SDS011;58775;46.992;9.518;2023-12-20T07:56:27;8.60;;;3.63;;
71116;SDS011;58775;46.992;9.518;2023-12-20T07:58:28;8.25;;;3.70;;
71116;SDS011;58775;46.992;9.518;2023-12-20T08:00:30;10.75;;;3.28;;
71116;SDS011;58775;46.992;9.518;2023-12-20T08:02:31;8.57;;;3.93;;
71116;SDS011;58775;46.992;9.518;2023-12-20T08:04:32;7.68;;;3.38;;
71116;SDS011;58775;46.992;9.518;2023-12-20T08:06:33;7.80;;;3.22;;
71116;SDS011;58775;46.992;9.518;2023-12-20T08:08:33;9.80;;;3.80;;
71116;SDS011;58775;46.992;9.518;2023-12-20T08:10:35;7.60;;;3.17;;
71116;SDS011;58775;46.992;9.518;2023-12-20T08:12:35;8.27;;;3.25;;
71116;SDS011;58775;46.992;9.518;2023-12-20T08:14:36;8.70;;;3.40;;
71116;SDS011;58775;46.992;9.518;2023-12-20T08:16:37;6.95;;;3.40;;
71116;SDS011;58775;46.992;9.518;2023-12-20T08:18:38;8.23;;;3.90;;
71116;SDS011;58775;46.992;9.518;2023-12-20T08:20:39;9.25;;;3.75;;
71116;SDS011;58775;46.992;9.518;2023-12-20T08:22:39;8.20;;;3.30;;
71116;SDS011;58775;46.992;9.518;2023-12-20T08:24:40;8.50;;;3.30;;
71116;SDS011;58775;46.992;9.518;2023-12-20T08:26:41;7.07;;;3.15;;
71116;SDS011;58775;46.992;9.518;2023-12-20T08:28:42;8.50;;;3.17;;
71116;SDS011;58775;46.992;9.518;2023-12-20T08:30:42;7.70;;;3.33;;
71116;SDS011;58775;46.992;9.518;2023-12-20T08:32:43;8.77;;;3.30;;
71116;SDS011;58775;46.992;9.518;2023-12-20T08:34:44;9.15;;;3.78;;
71116;SDS011;58775;46.992;9.518;2023-12-20T08:36:45;10.23;;;4.43;;
71116;SDS011;58775;46.992;9.518;2023-12-20T08:38:46;9.52;;;3.78;;
71116;SDS011;58775;46.992;9.518;2023-12-20T08:40:47;9.27;;;4.28;;
71116;SDS011;58775;46.992;9.518;2023-12-20T08:42:48;8.50;;;4.13;;
71116;SDS011;58775;46.992;9.518;2023-12-20T08:44:49;8.60;;;4.00;;
71116;SDS011;58775;46.992;9.518;2023-12-20T08:46:50;8.90;;;4.00;;
71116;SDS011;58775;46.992;9.518;2023-12-20T08:48:51;8.87;;;4.07;;
71116;SDS011;58775;46.992;9.518;2023-12-20T08:50:52;9.00;;;3.83;;
71116;SDS011;58775;46.992;9.518;2023-12-20T08:52:52;8.87;;;3.80;;
71116;SDS011;58775;46.992;9.518;2023-12-20T08:54:53;8.35;;;4.05;;
71116;SDS011;58775;46.992;9.518;2023-12-20T08:56:54;9.07;;;3.83;;
71116;SDS011;58775;46.992;9.518;2023-12-20T08:58:55;8.48;;;3.80;;
71116;SDS011;58775;46.992;9.518;2023-12-20T09:00:55;7.60;;;3.87;;
71116;SDS011;58775;46.992;9.518;2023-12-20T09:02:57;8.23;;;3.60;;
71116;SDS011;58775;46.992;9.518;2023-12-20T09:04:58;9.27;;;3.83;;
71116;SDS011;58775;46.992;9.518;2023-12-20T09:06:59;7.63;;;3.33;;
71116;SDS011;58775;46.992;9.518;2023-12-20T09:09:01;8.95;;;4.28;;
71116;SDS011;58775;46.992;9.518;2023-12-20T09:11:02;8.57;;;3.80;;
71116;SDS011;58775;46.992;9.518;2023-12-20T09:13:03;8.68;;;3.63;;
71116;SDS011;58775;46.992;9.518;2023-12-20T09:15:04;9.37;;;4.10;;
71116;SDS011;58775;46.992;9.518;2023-12-20T09:17:05;7.78;;;3.85;;
71116;SDS011;58775;46.992;9.518;2023-12-20T09:19:08;10.45;;;3.58;;
71116;SDS011;58775;46.992;9.518;2023-12-20T09:21:09;8.10;;;3.30;;
71116;SDS011;58775;46.992;9.518;2023-12-20T09:23:10;7.77;;;3.10;;
71116;SDS011;58775;46.992;9.518;2023-12-20T09:25:11;8.02;;;3.70;;
71116;SDS011;58775;46.992;9.518;2023-12-20T09:27:12;8.47;;;3.73;;
71116;SDS011;58775;46.992;9.518;2023-12-20T09:29:13;8.75;;;3.95;;
71116;SDS011;58775;46.992;9.518;2023-12-20T09:31:15;8.18;;;3.63;;
71116;SDS011;58775;46.992;9.518;2023-12-20T09:33:16;7.67;;;3.10;;
71116;SDS011;58775;46.992;9.518;2023-12-20T09:35:17;7.97;;;3.60;;
71116;SDS011;58775;46.992;9.518;2023-12-20T09:37:18;8.50;;;3.57;;
71116;SDS011;58775;46.992;9.518;2023-12-20T09:39:19;9.43;;;4.28;;
71116;SDS011;58775;46.992;9.518;2023-12-20T09:41:22;10.77;;;4.78;;
71116;SDS011;58775;46.992;9.518;2023-12-20T09:43:24;9.63;;;4.30;;
71116;SDS011;58775;46.992;9.518;2023-12-20T09:45:26;8.82;;;4.20;;
71116;SDS011;58775;46.992;9.518;2023-12-20T09:47:27;9.07;;;4.80;;
71116;SDS011;58775;46.992;9.518;2023-12-20T09:49:27;8.97;;;4.10;;
71116;SDS011;58775;46.992;9.518;2023-12-20T09:51:28;9.95;;;4.13;;
71116;SDS011;58775;46.992;9.518;2023-12-20T09:53:30;9.85;;;3.47;;
71116;SDS011;58775;46.992;9.518;2023-12-20T09:55:33;8.40;;;3.97;;
71116;SDS011;58775;46.992;9.518;2023-12-20T09:57:34;7.60;;;3.40;;
71116;SDS011;58775;46.992;9.518;2023-12-20T09:59:35;8.88;;;4.03;;
71116;SDS011;58775;46.992;9.518;2023-12-20T10:01:35;8.50;;;3.05;;
71116;SDS011;58775;46.992;9.518;2023-12-20T10:03:38;9.53;;;3.90;;
71116;SDS011;58775;46.992;9.518;2023-12-20T10:05:41;10.98;;;4.07;;
71116;SDS011;58775;46.992;9.518;2023-12-20T10:07:44;7.00;;;3.38;;
71116;SDS011;58775;46.992;9.518;2023-12-20T10:09:46;8.00;;;3.50;;
71116;SDS011;58775;46.992;9.518;2023-12-20T10:11:47;9.25;;;3.70;;
71116;SDS011;58775;46.992;9.518;2023-12-20T10:13:49;7.83;;;3.33;;
71116;SDS011;58775;46.992;9.518;2023-12-20T10:15:50;7.20;;;3.17;;
71116;SDS011;58775;46.992;9.518;2023-12-20T10:17:51;8.95;;;3.50;;
71116;SDS011;58775;46.992;9.518;2023-12-20T10:19:51;8.80;;;3.40;;
71116;SDS011;58775;46.992;9.518;2023-12-20T10:21:52;7.28;;;3.53;;
71116;SDS011;58775;46.992;9.518;2023-12-20T10:23:53;7.10;;;2.90;;
71116;SDS011;58775;46.992;9.518;2023-12-20T10:25:58;8.60;;;3.42;;
71116;SDS011;58775;46.992;9.518;2023-12-20T10:28:09;7.15;;;3.00;;
71116;SDS011;58775;46.992;9.518;2023-12-20T10:30:12;5.53;;;2.15;;
71116;SDS011;58775;46.992;9.518;2023-12-20T10:32:23;7.47;;;2.88;;
71116;SDS011;58775;46.992;9.518;2023-12-20T10:34:25;6.27;;;2.37;;
71116;SDS011;58775;46.992;9.518;2023-12-20T10:36:26;5.13;;;2.10;;
71116;SDS011;58775;46.992;9.518;2023-12-20T10:38:28;5.80;;;2.30;;
71116;SDS011;58775;46.992;9.518;2023-12-20T10:40:31;6.70;;;2.40;;
71116;SDS011;58775;46.992;9.518;2023-12-20T10:42:34;5.80;;;2.35;;
71116;SDS011;58775;46.992;9.518;2023-12-20T10:44:36;5.43;;;2.10;;
71116;SDS011;58775;46.992;9.518;2023-12-20T10:46:37;5.78;;;2.38;;
71116;SDS011;58775;46.992;9.518;2023-12-20T10:48:40;6.93;;;2.10;;
71116;SDS011;58775;46.992;9.518;2023-12-20T10:50:42;5.38;;;2.30;;
71116;SDS011;58775;46.992;9.518;2023-12-20T10:52:44;5.47;;;2.10;;
71116;SDS011;58775;46.992;9.518;2023-12-20T10:54:46;5.43;;;2.03;;
71116;SDS011;58775;46.992;9.518;2023-12-20T10:56:46;5.95;;;1.90;;
71116;SDS011;58775;46.992;9.518;2023-12-20T10:58:50;5.77;;;2.00;;
71116;SDS011;58775;46.992;9.518;2023-12-20T11:00:52;5.72;;;2.25;;
71116;SDS011;58775;46.992;9.518;2023-12-20T11:03:05;6.82;;;2.22;;
71116;SDS011;58775;46.992;9.518;2023-12-20T11:07:48;5.88;;;2.35;;
71116;SDS011;58775;46.992;9.518;2023-12-20T11:09:56;4.90;;;2.23;;
71116;SDS011;58775;46.992;9.518;2023-12-20T11:12:13;4.78;;;1.65;;
71116;SDS011;58775;46.992;9.518;2023-12-20T11:14:25;4.88;;;1.92;;
71116;SDS011;58775;46.992;9.518;2023-12-20T11:16:32;5.93;;;2.10;;
71116;SDS011;58775;46.992;9.518;2023-12-20T11:18:33;4.97;;;1.87;;
71116;SDS011;58775;46.992;9.518;2023-12-20T11:20:37;6.18;;;2.55;;
71116;SDS011;58775;46.992;9.518;2023-12-20T11:22:39;7.38;;;2.95;;
71116;SDS011;58775;46.992;9.518;2023-12-20T11:24:52;5.33;;;2.33;;
71116;SDS011;58775;46.992;9.518;2023-12-20T11:26:55;5.43;;;2.47;;
71116;SDS011;58775;46.992;9.518;2023-12-20T11:31:45;4.35;;;1.88;;
71116;SDS011;58775;46.992;9.518;2023-12-20T11:33:45;5.00;;;1.80;;
71116;SDS011;58775;46.992;9.518;2023-12-20T11:35:51;4.88;;;2.03;;
71116;SDS011;58775;46.992;9.518;2023-12-20T11:37:55;5.32;;;1.90;;
71116;SDS011;58775;46.992;9.518;2023-12-20T11:40:02;5.05;;;2.00;;
71116;SDS011;58775;46.992;9.518;2023-12-20T11:42:04;5.32;;;1.90;;
71116;SDS011;58775;46.992;9.518;2023-12-20T11:44:06;5.05;;;2.13;;
71116;SDS011;58775;46.992;9.518;2023-12-20T11:46:09;7.10;;;2.17;;
71116;SDS011;58775;46.992;9.518;2023-12-20T11:48:10;4.53;;;1.90;;
71116;SDS011;58775;46.992;9.518;2023-12-20T11:50:11;5.15;;;1.88;;
71116;SDS011;58775;46.992;9.518;2023-12-20T11:52:12;6.50;;;1.97;;
71116;SDS011;58775;46.992;9.518;2023-12-20T11:54:13;5.53;;;2.10;;
71116;SDS011;58775;46.992;9.518;2023-12-20T11:56:15;8.48;;;2.63;;
71116;SDS011;58775;46.992;9.518;2023-12-20T11:58:16;6.30;;;2.40;;
71116;SDS011;58775;46.992;9.518;2023-12-20T12:00:17;6.13;;;2.38;;
71116;SDS011;58775;46.992;9.518;2023-12-20T12:02:19;5.38;;;2.10;;
71116;SDS011;58775;46.992;9.518;2023-12-20T12:04:20;5.07;;;2.00;;
71116;SDS011;58775;46.992;9.518;2023-12-20T12:06:21;5.72;;;1.90;;
71116;SDS011;58775;46.992;9.518;2023-12-20T12:08:21;5.60;;;2.40;;
71116;SDS011;58775;46.992;9.518;2023-12-20T12:10:22;7.10;;;2.37;;
71116;SDS011;58775;46.992;9.518;2023-12-20T12:12:23;5.10;;;2.10;;